createdAt,value
2022-08-07T18:52:33.923Z,101215.06
2022-08-07T18:54:27.942Z,101222.00
2022-08-07T18:57:30.665Z,101231.44
2022-08-07T19:00:33.130Z,101220.84
2022-08-07T19:03:04.277Z,101220.06
2022-08-07T19:06:02.307Z,101227.25
2022-08-07T19:08:47.137Z,101224.47
2022-08-07T19:11:35.946Z,101224.25
2022-08-07T19:14:17.136Z,101232.41
2022-08-07T19:17:05.760Z,101228.97
2022-08-07T19:19:50.976Z,101222.88
2022-08-07T19:22:30.916Z,101227.28
2022-08-07T19:25:06.468Z,101228.72
2022-08-07T19:28:56.984Z,101229.16
2022-08-07T19:31:00.137Z,101228.25
2022-08-07T19:33:33.547Z,101233.63
2022-08-07T19:36:05.836Z,101238.22
2022-08-07T19:38:52.944Z,101233.72
2022-08-07T19:41:44.190Z,101234.28
2022-08-07T19:44:26.290Z,101235.09
2022-08-07T19:47:08.018Z,101234.34
2022-08-07T19:49:57.459Z,101234.09
2022-08-07T19:52:30.075Z,101237.53
2022-08-07T19:55:00.147Z,101242.06
2022-08-07T19:58:03.626Z,101242.91
2022-08-07T20:00:32.136Z,101248.72
2022-08-07T20:03:35.155Z,101245.13
2022-08-07T20:06:02.304Z,101257.59
2022-08-07T20:08:35.163Z,101253.41
2022-08-07T20:11:10.381Z,101251.25
2022-08-07T20:13:44.923Z,101251.00
2022-08-07T20:16:34.736Z,101249.97
2022-08-07T20:19:10.621Z,101251.25
2022-08-07T20:21:47.444Z,101254.69
2022-08-07T20:24:21.091Z,101266.31
2022-08-07T20:26:52.299Z,101262.63
2022-08-07T20:29:49.520Z,101264.22
2022-08-07T20:32:22.662Z,101267.91
2022-08-07T20:34:57.727Z,101266.06
2022-08-07T20:37:33.938Z,101266.88
2022-08-07T20:40:31.132Z,101260.53
2022-08-07T20:42:58.230Z,101265.03
2022-08-07T20:46:28.295Z,101269.50
2022-08-07T20:48:28.667Z,101280.88
2022-08-07T20:51:01.492Z,101282.22
2022-08-07T20:54:04.202Z,101279.31
2022-08-07T20:56:26.016Z,101280.38
2022-08-07T20:59:00.084Z,101287.00
2022-08-07T21:01:45.180Z,101289.63
2022-08-07T21:04:24.099Z,101283.31
2022-08-07T21:06:57.423Z,101287.53
2022-08-07T21:09:52.171Z,101289.13
2022-08-07T21:12:28.582Z,101288.59
2022-08-07T21:15:01.100Z,101295.47
2022-08-07T21:18:01.929Z,101297.06
2022-08-07T21:20:29.723Z,101299.94
2022-08-07T21:23:07.307Z,101292.03
2022-08-07T21:26:01.322Z,101290.19
2022-08-07T21:28:48.306Z,101276.41
2022-08-07T21:31:49.398Z,101279.06
2022-08-07T21:34:26.782Z,101281.72
2022-08-07T21:37:05.339Z,101270.34
2022-08-07T21:39:51.714Z,101280.66
2022-08-07T21:42:49.435Z,101275.38
2022-08-07T21:46:08.908Z,101284.91
2022-08-07T21:48:28.731Z,101274.56
2022-08-07T21:51:19.235Z,101280.66
2022-08-07T21:53:53.553Z,101282.50
2022-08-07T21:56:36.458Z,101271.69
2022-08-07T21:59:18.504Z,101280.41
2022-08-07T22:02:11.074Z,101280.41
2022-08-07T22:04:51.086Z,101288.34
2022-08-07T22:07:48.679Z,101282.00
2022-08-07T22:10:20.289Z,101282.00
2022-08-07T22:12:54.495Z,101282.78
2022-08-07T22:16:39.617Z,101273.03
2022-08-07T22:18:25.380Z,101276.47
2022-08-07T22:21:02.916Z,101276.47
2022-08-07T22:23:40.403Z,101269.31
2022-08-07T22:26:19.292Z,101272.22
2022-08-07T22:28:55.011Z,101269.59
2022-08-07T22:32:00.066Z,101266.44
2022-08-07T22:34:52.902Z,101273.28
2022-08-07T22:38:04.188Z,101277.50
2022-08-07T22:40:29.798Z,101278.56
2022-08-07T22:43:04.530Z,101283.59
2022-08-07T22:46:40.648Z,101279.91
2022-08-07T22:49:06.543Z,101277.50
2022-08-07T22:52:04.207Z,101277.25
2022-08-07T22:54:54.302Z,101266.16
2022-08-07T22:57:46.844Z,101274.63
2022-08-07T23:00:28.363Z,101274.88
2022-08-07T23:03:12.167Z,101273.81
2022-08-07T23:06:09.778Z,101276.47
2022-08-07T23:08:53.026Z,101279.09
2022-08-07T23:11:45.959Z,101285.44
2022-08-07T23:14:39.423Z,101290.47
2022-08-07T23:17:22.517Z,101294.97
2022-08-07T23:20:52.784Z,101291.25
2022-08-07T23:24:06.992Z,101291.25
2022-08-07T23:26:56.182Z,101294.66
2022-08-07T23:30:35.660Z,101283.84
2022-08-07T23:34:35.328Z,101297.84
2022-08-07T23:35:56.811Z,101290.19
2022-08-07T23:38:42.705Z,101296.25
2022-08-07T23:41:33.569Z,101290.19
2022-08-07T23:44:33.585Z,101305.53
2022-08-07T23:47:23.248Z,101297.06
2022-08-07T23:50:24.141Z,101298.41
2022-08-07T23:53:17.606Z,101293.38
2022-08-07T23:55:56.101Z,101289.94
2022-08-07T23:58:34.988Z,101294.16
